Price, Utah
Current Conditions -  °F | °C
As of 12:53 PM on Monday 24 Nov 2014 (Local Time) from KPUC Reporting Station
Clear Clear  
Wind Chill: 23°   Ceiling: Unl
Heat Index: 36°   Visibility: 10mi
Dew Point: 14°   Wind: 28mph
Humidity: 41%   Direction: 320°NW
Pressure: 30.22"   Gusts: 38mph
Location:  39.6°N, 110.81°W
Report Text: KPUC 241953Z AUTO 32024G33KT 10SM CLR 02/M10 A3022 RMK AO2 PK WND 32034/1920 SLP263 T00221100
Loading
Personal Weather Stations






























Interactive Weather Map New forecast layout! Learn more

10-Day Weather Forecast

Advertisements
Track Severe Weather on mobile